Time;durP1;ratioP1;P1;durP2;ratioP2;P2;SDS_P1;SDS_P2;PMS_P1;PMS_P2;Temp;Humidity;BMP_temperature;BMP_pressure;BME280_temperature;BME280_humidity;BME280_pressure;Samples;Min_cycle;Max_cycle;Signal;HPM_P1;HPM_P2
2023/08/23 00:00:07;;;;;;;16.90;11.88;;;;;;;;;;6264370;28;20053;-61
2023/08/23 00:03:28;;;;;;;17.90;12.55;;;;;;;;;;6262976;28;20045;-61
2023/08/23 00:06:29;;;;;;;13.97;11.17;;;;;;;;;;6263497;28;20045;-62
2023/08/23 00:09:29;;;;;;;17.87;12.60;;;;;;;;;;6260796;28;20049;-61
2023/08/23 00:12:30;;;;;;;20.97;13.47;;;;;;;;;;6259634;28;20049;-61
2023/08/23 00:15:30;;;;;;;15.43;12.40;;;;;;;;;;6261881;28;20915;-62
2023/08/23 00:18:31;;;;;;;17.07;13.03;;;;;;;;;;6264274;28;20078;-61
2023/08/23 00:21:32;;;;;;;20.33;13.50;;;;;;;;;;6262774;28;20324;-61
2023/08/23 00:24:32;;;;;;;20.57;14.90;;;;;;;;;;6263202;28;20059;-62
2023/08/23 00:27:33;;;;;;;19.37;14.27;;;;;;;;;;6264562;28;20044;-61
2023/08/23 00:30:33;;;;;;;19.87;15.20;;;;;;;;;;6261423;28;20937;-62
2023/08/23 00:33:34;;;;;;;21.40;16.07;;;;;;;;;;6264600;28;20067;-62
2023/08/23 00:36:34;;;;;;;21.10;15.33;;;;;;;;;;6263531;28;20102;-62
2023/08/23 00:39:35;;;;;;;21.20;15.23;;;;;;;;;;6260885;28;20072;-61
2023/08/23 00:42:36;;;;;;;20.30;16.40;;;;;;;;;;6262394;28;20055;-63
2023/08/23 00:45:39;;;;;;;21.40;16.67;;;;;;;;;;6263733;28;20476;-62
2023/08/23 00:48:40;;;;;;;22.08;16.48;;;;;;;;;;6262867;28;20067;-63
2023/08/23 00:51:41;;;;;;;22.37;16.40;;;;;;;;;;6265797;28;20481;-61
2023/08/23 00:54:42;;;;;;;25.23;17.10;;;;;;;;;;6263276;28;20049;-62
2023/08/23 00:57:42;;;;;;;22.43;17.23;;;;;;;;;;6265754;28;20381;-62
2023/08/23 01:00:44;;;;;;;22.77;17.40;;;;;;;;;;6264047;28;20049;-62
2023/08/23 01:03:44;;;;;;;23.80;17.08;;;;;;;;;;6263338;28;20451;-61
2023/08/23 01:06:53;;;;;;;26.80;17.37;;;;;;;;;;6263011;28;20194;-61
2023/08/23 01:10:38;;;;;;;27.20;19.00;;;;;;;;;;6267391;28;20061;-62
2023/08/23 01:13:50;;;;;;;23.70;17.58;;;;;;;;;;6263493;28;20427;-62
2023/08/23 01:16:51;;;;;;;22.92;16.70;;;;;;;;;;6268464;28;20052;-61
2023/08/23 01:19:53;;;;;;;24.98;17.90;;;;;;;;;;6268930;28;20049;-61
2023/08/23 01:23:13;;;;;;;23.50;17.13;;;;;;;;;;6266544;28;20560;-61
2023/08/23 01:26:14;;;;;;;25.83;18.90;;;;;;;;;;6268137;28;20055;-62
2023/08/23 01:29:15;;;;;;;27.50;18.53;;;;;;;;;;6268849;28;20547;-62
2023/08/23 01:32:28;;;;;;;24.85;17.98;;;;;;;;;;6270224;28;20053;-62
2023/08/23 01:35:35;;;;;;;26.73;18.63;;;;;;;;;;6266536;28;20048;-63
2023/08/23 01:38:38;;;;;;;25.85;18.63;;;;;;;;;;6263641;28;20065;-62
2023/08/23 01:41:39;;;;;;;26.65;19.60;;;;;;;;;;6265179;28;20450;-61
2023/08/23 01:44:43;;;;;;;27.85;19.15;;;;;;;;;;6266576;28;20052;-61
2023/08/23 01:47:43;;;;;;;27.30;19.10;;;;;;;;;;6263697;28;20041;-61
2023/08/23 01:50:44;;;;;;;27.77;18.53;;;;;;;;;;6268127;28;20036;-61
2023/08/23 01:53:45;;;;;;;27.40;19.63;;;;;;;;;;6269797;28;20067;-61
2023/08/23 01:56:46;;;;;;;23.93;18.47;;;;;;;;;;6266359;28;20407;-61
2023/08/23 01:59:47;;;;;;;26.50;19.53;;;;;;;;;;6266465;28;20048;-62
2023/08/23 02:02:47;;;;;;;;;;;;;;;;;;6267882;28;20037;-61
2023/08/23 02:05:48;;;;;;;28.00;19.58;;;;;;;;;;6267557;28;20301;-61
2023/08/23 02:08:50;;;;;;;28.30;20.40;;;;;;;;;;6265260;28;20086;-61
2023/08/23 02:11:50;;;;;;;30.52;20.88;;;;;;;;;;6266421;28;20124;-61
2023/08/23 02:14:51;;;;;;;28.53;19.23;;;;;;;;;;6268526;28;20149;-61
2023/08/23 02:17:52;;;;;;;33.33;21.73;;;;;;;;;;6265705;28;20057;-61
2023/08/23 02:20:57;;;;;;;29.60;20.90;;;;;;;;;;6266583;28;20055;-62
2023/08/23 02:23:57;;;;;;;30.05;20.10;;;;;;;;;;6268438;28;20056;-62
2023/08/23 02:26:58;;;;;;;28.13;20.67;;;;;;;;;;6267601;28;20045;-62
2023/08/23 02:29:58;;;;;;;30.53;20.53;;;;;;;;;;6267135;28;20053;-62
2023/08/23 02:32:59;;;;;;;29.13;20.95;;;;;;;;;;6266768;28;20044;-63
2023/08/23 02:35:59;;;;;;;28.57;21.00;;;;;;;;;;6265945;28;20065;-61
2023/08/23 02:39:00;;;;;;;29.00;21.83;;;;;;;;;;6265111;28;20045;-61
2023/08/23 02:42:01;;;;;;;27.80;20.77;;;;;;;;;;6264828;28;20059;-61
2023/08/23 02:45:01;;;;;;;29.37;20.60;;;;;;;;;;6265800;28;20198;-63
2023/08/23 02:48:02;;;;;;;29.80;21.07;;;;;;;;;;6264225;28;20041;-62
2023/08/23 02:51:03;;;;;;;31.52;21.42;;;;;;;;;;6266170;28;20048;-62
2023/08/23 02:54:04;;;;;;;30.50;21.57;;;;;;;;;;6268183;28;20049;-62
2023/08/23 02:57:04;;;;;;;30.30;22.43;;;;;;;;;;6266359;28;20456;-62
2023/08/23 03:00:05;;;;;;;34.67;22.30;;;;;;;;;;6266507;28;20298;-61
2023/08/23 03:03:06;;;;;;;29.02;21.25;;;;;;;;;;6266028;28;20480;-62
2023/08/23 03:06:07;;;;;;;32.93;23.97;;;;;;;;;;6267418;28;20119;-61
2023/08/23 03:09:07;;;;;;;35.47;24.90;;;;;;;;;;6265839;28;20148;-62
2023/08/23 03:12:08;;;;;;;35.97;24.97;;;;;;;;;;6266300;28;20041;-61
2023/08/23 03:15:09;;;;;;;35.57;24.73;;;;;;;;;;6266026;28;20132;-61
2023/08/23 03:18:09;;;;;;;33.20;25.17;;;;;;;;;;6266972;28;20049;-61
2023/08/23 03:21:10;;;;;;;33.73;25.20;;;;;;;;;;6266076;28;20317;-62
2023/08/23 03:24:11;;;;;;;38.53;26.93;;;;;;;;;;6265748;28;20434;-60
2023/08/23 03:27:11;;;;;;;39.73;27.80;;;;;;;;;;6265401;28;20052;-61
2023/08/23 03:30:12;;;;;;;39.27;28.17;;;;;;;;;;6265512;28;20037;-62
2023/08/23 03:33:13;;;;;;;39.55;28.30;;;;;;;;;;6264123;28;20516;-61
2023/08/23 03:36:14;;;;;;;39.47;28.57;;;;;;;;;;6262738;28;20060;-62
2023/08/23 03:39:14;;;;;;;43.60;28.33;;;;;;;;;;6264394;28;20052;-61
2023/08/23 03:42:15;;;;;;;38.87;27.20;;;;;;;;;;6262823;28;20054;-62
2023/08/23 03:45:17;;;;;;;40.87;28.33;;;;;;;;;;6262357;28;20150;-62
2023/08/23 03:48:18;;;;;;;41.00;29.63;;;;;;;;;;6264076;28;20060;-62
2023/08/23 03:51:19;;;;;;;42.97;28.37;;;;;;;;;;6263760;28;20513;-61
2023/08/23 03:54:21;;;;;;;42.03;29.23;;;;;;;;;;6261072;28;20684;-61
2023/08/23 03:57:22;;;;;;;40.30;27.92;;;;;;;;;;6264456;28;20053;-62
2023/08/23 04:00:22;;;;;;;39.67;27.83;;;;;;;;;;6263466;28;20051;-62
2023/08/23 04:03:23;;;;;;;40.17;27.17;;;;;;;;;;6264964;28;20127;-61
2023/08/23 04:06:23;;;;;;;39.37;28.40;;;;;;;;;;6264412;28;20056;-61
2023/08/23 04:09:24;;;;;;;40.30;28.07;;;;;;;;;;6263885;28;20146;-62
2023/08/23 04:12:24;;;;;;;40.97;27.67;;;;;;;;;;6263128;28;20051;-62
2023/08/23 04:15:25;;;;;;;43.00;27.93;;;;;;;;;;6265514;28;20049;-61
2023/08/23 04:18:25;;;;;;;41.77;27.80;;;;;;;;;;6264289;28;20052;-61
2023/08/23 04:21:27;;;;;;;44.07;27.73;;;;;;;;;;6264982;28;20099;-61
2023/08/23 04:24:27;;;;;;;41.45;28.23;;;;;;;;;;6264801;28;20041;-62
2023/08/23 04:27:28;;;;;;;43.90;27.23;;;;;;;;;;6265663;28;20048;-62
2023/08/23 04:30:28;;;;;;;42.70;27.63;;;;;;;;;;6263690;28;20407;-61
2023/08/23 04:33:29;;;;;;;47.53;29.10;;;;;;;;;;6264442;28;20045;-61
2023/08/23 04:36:31;;;;;;;44.30;28.53;;;;;;;;;;6263064;28;20048;-61
2023/08/23 04:39:31;;;;;;;;;;;;;;;;;;6258170;28;20080;-62
2023/08/23 04:42:32;;;;;;;44.33;28.92;;;;;;;;;;6254071;28;19921;-61
2023/08/23 04:45:37;;;;;;;46.50;28.80;;;;;;;;;;6263418;28;20465;-61
2023/08/23 04:48:38;;;;;;;43.33;28.20;;;;;;;;;;6265729;28;20087;-62
2023/08/23 04:51:38;;;;;;;48.70;30.50;;;;;;;;;;6266687;28;20549;-61
2023/08/23 04:54:39;;;;;;;46.70;27.80;;;;;;;;;;6266411;28;20574;-61
2023/08/23 04:57:39;;;;;;;46.13;29.53;;;;;;;;;;6264207;28;20073;-61
2023/08/23 05:00:40;;;;;;;48.60;29.20;;;;;;;;;;6266945;28;20521;-61
2023/08/23 05:03:40;;;;;;;42.90;28.67;;;;;;;;;;6267822;28;20494;-61
2023/08/23 05:06:41;;;;;;;41.73;28.30;;;;;;;;;;6266694;28;20049;-61
2023/08/23 05:09:42;;;;;;;40.63;27.77;;;;;;;;;;6268738;28;20083;-61
2023/08/23 05:12:42;;;;;;;40.53;26.53;;;;;;;;;;6268907;28;20495;-61
2023/08/23 05:15:43;;;;;;;43.73;27.67;;;;;;;;;;6267204;28;20048;-61
2023/08/23 05:18:43;;;;;;;41.20;27.30;;;;;;;;;;6266799;28;20037;-61
2023/08/23 05:21:45;;;;;;;40.73;27.03;;;;;;;;;;6269109;28;20122;-61
2023/08/23 05:24:47;;;;;;;41.95;26.27;;;;;;;;;;6269210;28;20045;-62
2023/08/23 05:27:47;;;;;;;;;;;;;;;;;;6269982;28;20083;-61
2023/08/23 05:30:50;;;;;;;40.35;27.23;;;;;;;;;;6269098;28;20373;-61
2023/08/23 05:33:50;;;;;;;45.42;27.15;;;;;;;;;;6266692;28;20045;-62
2023/08/23 05:36:51;;;;;;;39.37;25.47;;;;;;;;;;6267273;28;20557;-61
2023/08/23 05:39:51;;;;;;;40.00;26.17;;;;;;;;;;6266954;28;20408;-61
2023/08/23 05:42:52;;;;;;;39.43;25.17;;;;;;;;;;6244633;28;20103;-61
2023/08/23 05:45:56;;;;;;;36.50;23.30;;;;;;;;;;6267735;28;20056;-61
2023/08/23 05:48:57;;;;;;;34.88;24.70;;;;;;;;;;6264155;28;20478;-62
2023/08/23 05:51:58;;;;;;;;;;;;;;;;;;6269600;28;20095;-61
2023/08/23 05:54:58;;;;;;;29.77;22.27;;;;;;;;;;6262608;28;20454;-61
2023/08/23 05:57:59;;;;;;;33.40;23.53;;;;;;;;;;6266903;28;20045;-61
2023/08/23 06:00:59;;;;;;;35.10;23.93;;;;;;;;;;6266952;28;20305;-62
2023/08/23 06:04:00;;;;;;;33.93;23.13;;;;;;;;;;6266553;28;20123;-61
2023/08/23 06:07:01;;;;;;;37.07;24.87;;;;;;;;;;6267256;28;20083;-61
2023/08/23 06:10:01;;;;;;;37.93;26.27;;;;;;;;;;6268001;28;20061;-61
2023/08/23 06:13:02;;;;;;;45.37;27.90;;;;;;;;;;6265553;28;20049;-61
2023/08/23 06:16:03;;;;;;;41.03;27.05;;;;;;;;;;6267026;28;20045;-61
2023/08/23 06:19:04;;;;;;;41.00;27.50;;;;;;;;;;6267098;28;20427;-62
2023/08/23 06:22:04;;;;;;;40.73;26.50;;;;;;;;;;6268039;28;20079;-62
2023/08/23 06:25:05;;;;;;;39.10;25.40;;;;;;;;;;6265317;28;20519;-62
2023/08/23 06:28:07;;;;;;;38.30;25.50;;;;;;;;;;6264977;28;20049;-62
2023/08/23 06:31:07;;;;;;;;;;;;;;;;;;6268165;28;20052;-62
2023/08/23 06:34:08;;;;;;;39.88;24.00;;;;;;;;;;6265625;28;20698;-62
2023/08/23 06:37:09;;;;;;;37.90;24.87;;;;;;;;;;6266056;28;20041;-61
2023/08/23 06:40:11;;;;;;;38.03;24.53;;;;;;;;;;6265526;28;20109;-62
2023/08/23 06:43:17;;;;;;;33.20;23.13;;;;;;;;;;6266842;28;20111;-63
2023/08/23 06:46:17;;;;;;;35.90;24.10;;;;;;;;;;6243442;28;20409;-62
2023/08/23 06:49:18;;;;;;;37.37;23.53;;;;;;;;;;6260220;28;20055;-61
2023/08/23 06:52:19;;;;;;;35.83;22.80;;;;;;;;;;6265339;28;20072;-62
2023/08/23 06:55:19;;;;;;;33.43;22.87;;;;;;;;;;6267632;28;20124;-62
2023/08/23 06:58:20;;;;;;;32.97;22.98;;;;;;;;;;6266299;28;20127;-62
2023/08/23 07:01:21;;;;;;;36.67;24.47;;;;;;;;;;6265198;28;20052;-62
2023/08/23 07:04:22;;;;;;;34.88;23.35;;;;;;;;;;6265867;28;20059;-62
2023/08/23 07:07:23;;;;;;;29.37;22.37;;;;;;;;;;6266084;28;20421;-62
2023/08/23 07:10:23;;;;;;;32.00;22.73;;;;;;;;;;6267428;28;20550;-62
2023/08/23 07:13:24;;;;;;;33.63;22.70;;;;;;;;;;6265878;28;20041;-62
2023/08/23 07:16:24;;;;;;;33.80;23.17;;;;;;;;;;6265693;28;20073;-62
2023/08/23 07:19:25;;;;;;;30.77;22.57;;;;;;;;;;6265870;28;20408;-62
2023/08/23 07:22:26;;;;;;;34.00;23.50;;;;;;;;;;6263934;28;20545;-62
2023/08/23 07:25:26;;;;;;;35.67;24.30;;;;;;;;;;6265325;28;20045;-63
2023/08/23 07:28:27;;;;;;;32.90;23.87;;;;;;;;;;6261896;28;20120;-62
2023/08/23 07:31:27;;;;;;;34.27;24.73;;;;;;;;;;6263973;28;20041;-62
2023/08/23 07:34:28;;;;;;;30.60;22.93;;;;;;;;;;6266167;28;20049;-62
2023/08/23 07:37:28;;;;;;;30.67;22.17;;;;;;;;;;6264120;28;20048;-62
2023/08/23 07:40:29;;;;;;;31.47;21.70;;;;;;;;;;6263106;28;20187;-62
2023/08/23 07:43:30;;;;;;;29.50;21.60;;;;;;;;;;6264732;28;20041;-62
2023/08/23 07:46:31;;;;;;;30.20;22.00;;;;;;;;;;6264995;28;20828;-62
2023/08/23 07:49:31;;;;;;;28.93;21.50;;;;;;;;;;6266540;28;20064;-62
2023/08/23 07:52:32;;;;;;;25.13;19.90;;;;;;;;;;6265695;28;20053;-62
2023/08/23 07:55:32;;;;;;;28.27;21.23;;;;;;;;;;6263054;28;20045;-62
2023/08/23 07:58:33;;;;;;;25.40;19.47;;;;;;;;;;6264663;28;20073;-62
2023/08/23 08:01:34;;;;;;;25.88;20.83;;;;;;;;;;6263955;28;20053;-62
2023/08/23 08:04:35;;;;;;;25.60;19.90;;;;;;;;;;6265125;28;20077;-62
2023/08/23 08:07:35;;;;;;;29.03;21.77;;;;;;;;;;6264460;28;20051;-62
2023/08/23 08:10:36;;;;;;;26.27;19.87;;;;;;;;;;6266479;28;20140;-62
2023/08/23 08:13:37;;;;;;;28.50;20.13;;;;;;;;;;6264802;28;20106;-62
2023/08/23 08:16:37;;;;;;;30.10;20.55;;;;;;;;;;6264357;28;20847;-62
2023/08/23 08:19:38;;;;;;;27.20;21.00;;;;;;;;;;6263135;28;20099;-62
2023/08/23 08:22:39;;;;;;;26.93;20.70;;;;;;;;;;6265998;28;20056;-62
2023/08/23 08:25:39;;;;;;;26.27;21.00;;;;;;;;;;6264092;28;20045;-62
2023/08/23 08:28:43;;;;;;;24.97;19.43;;;;;;;;;;6264661;28;20052;-62
2023/08/23 08:31:44;;;;;;;26.90;20.92;;;;;;;;;;6263144;28;20126;-62
2023/08/23 08:34:46;;;;;;;29.83;20.55;;;;;;;;;;6263604;28;20048;-62
2023/08/23 08:37:47;;;;;;;25.58;19.90;;;;;;;;;;6264148;28;20051;-62
2023/08/23 08:40:48;;;;;;;28.47;19.13;;;;;;;;;;6264617;28;20084;-62
2023/08/23 08:43:49;;;;;;;25.63;19.93;;;;;;;;;;6264231;28;20056;-61
2023/08/23 08:46:51;;;;;;;24.08;18.88;;;;;;;;;;6264646;28;20053;-61
2023/08/23 08:49:52;;;;;;;22.85;17.88;;;;;;;;;;6262456;28;20053;-62
2023/08/23 08:52:53;;;;;;;24.37;18.23;;;;;;;;;;6266021;28;20048;-62
2023/08/23 08:55:53;;;;;;;22.40;18.40;;;;;;;;;;6262335;28;20049;-62
2023/08/23 08:58:55;;;;;;;25.38;19.05;;;;;;;;;;6264027;28;20302;-62
2023/08/23 09:01:57;;;;;;;26.23;19.77;;;;;;;;;;6262458;28;20056;-62
2023/08/23 09:05:00;;;;;;;28.10;20.88;;;;;;;;;;6265894;28;20044;-61
2023/08/23 09:08:01;;;;;;;29.35;21.70;;;;;;;;;;6263869;28;20049;-63
2023/08/23 09:11:01;;;;;;;28.90;21.93;;;;;;;;;;6264271;28;20087;-62
2023/08/23 09:14:15;;;;;;;26.87;21.33;;;;;;;;;;6263988;28;20048;-62
2023/08/23 09:17:22;;;;;;;27.55;21.17;;;;;;;;;;6265414;28;20164;-62
2023/08/23 09:20:23;;;;;;;31.88;20.40;;;;;;;;;;6262771;28;20084;-62
2023/08/23 09:23:23;;;;;;;28.53;19.97;;;;;;;;;;6264234;28;20136;-62
2023/08/23 09:26:24;;;;;;;25.53;19.30;;;;;;;;;;6263554;28;20488;-62
2023/08/23 09:29:25;;;;;;;25.17;19.95;;;;;;;;;;6265988;28;20530;-62
2023/08/23 09:32:26;;;;;;;24.50;19.30;;;;;;;;;;6268398;28;20044;-62
2023/08/23 09:35:28;;;;;;;23.27;18.87;;;;;;;;;;6268837;28;20313;-62
2023/08/23 09:38:29;;;;;;;23.23;17.30;;;;;;;;;;6267273;28;20416;-62
2023/08/23 09:41:30;;;;;;;19.83;14.43;;;;;;;;;;6267145;28;20056;-62
2023/08/23 09:44:39;;;;;;;19.77;14.20;;;;;;;;;;6269879;28;20488;-62
2023/08/23 09:47:52;;;;;;;18.70;13.90;;;;;;;;;;6267602;28;20049;-62
2023/08/23 09:50:55;;;;;;;20.77;15.20;;;;;;;;;;6267581;28;20431;-61
2023/08/23 09:53:57;;;;;;;18.75;14.77;;;;;;;;;;6268495;28;20110;-62
2023/08/23 09:56:59;;;;;;;21.15;16.60;;;;;;;;;;6269834;28;20095;-62
2023/08/23 09:59:59;;;;;;;;;;;;;;;;;;6267745;28;20143;-62
2023/08/23 10:03:00;;;;;;;20.70;15.27;;;;;;;;;;6263077;28;19927;-62
2023/08/23 10:06:02;;;;;;;18.75;13.32;;;;;;;;;;6262881;28;20074;-62
2023/08/23 10:09:03;;;;;;;19.23;14.57;;;;;;;;;;6264672;28;20052;-62
2023/08/23 10:12:05;;;;;;;;;;;;;;;;;;6263440;28;20041;-62
2023/08/23 10:15:08;;;;;;;;;;;;;;;;;;6263416;28;20019;-62
2023/08/23 10:18:12;;;;;;;19.02;13.30;;;;;;;;;;6259410;28;20345;-62
2023/08/23 10:21:12;;;;;;;16.10;13.70;;;;;;;;;;6261149;28;20049;-62
2023/08/23 10:24:13;;;;;;;21.80;16.30;;;;;;;;;;6263482;28;20102;-62
2023/08/23 10:27:15;;;;;;;16.98;14.80;;;;;;;;;;6262674;28;20037;-63
2023/08/23 10:30:25;;;;;;;17.40;12.95;;;;;;;;;;6266276;28;20057;-62
2023/08/23 10:33:25;;;;;;;15.80;11.52;;;;;;;;;;6263745;28;20571;-62
2023/08/23 10:36:28;;;;;;;13.60;11.00;;;;;;;;;;6266674;28;20049;-63
2023/08/23 10:39:28;;;;;;;16.83;12.60;;;;;;;;;;6263936;28;20088;-62
2023/08/23 10:42:29;;;;;;;17.23;14.17;;;;;;;;;;6246933;28;20065;-62
2023/08/23 10:46:06;;;;;;;16.73;14.45;;;;;;;;;;6250024;28;20056;-62
2023/08/23 10:49:06;;;;;;;16.90;13.90;;;;;;;;;;6249235;28;20061;-62
2023/08/23 10:52:07;;;;;;;17.33;11.57;;;;;;;;;;6248514;28;20048;-62
2023/08/23 10:55:09;;;;;;;17.02;10.65;;;;;;;;;;6250026;28;20388;-62
2023/08/23 10:58:09;;;;;;;;;;;;;;;;;;6250119;28;20056;-62
2023/08/23 11:01:10;;;;;;;13.33;9.83;;;;;;;;;;6247027;28;20332;-62
2023/08/23 11:04:11;;;;;;;14.80;9.87;;;;;;;;;;6249861;28;20057;-62
2023/08/23 11:07:13;;;;;;;14.35;11.18;;;;;;;;;;6249929;28;20049;-62
2023/08/23 11:10:13;;;;;;;15.30;11.60;;;;;;;;;;6251696;28;20464;-63
2023/08/23 11:13:14;;;;;;;15.65;11.60;;;;;;;;;;6263681;28;20132;-62
2023/08/23 11:16:14;;;;;;;13.10;10.63;;;;;;;;;;6264922;28;20052;-62
2023/08/23 11:19:15;;;;;;;15.25;12.30;;;;;;;;;;6265873;28;20467;-62
2023/08/23 11:22:17;;;;;;;16.13;12.90;;;;;;;;;;6263818;28;20539;-62
2023/08/23 11:25:17;;;;;;;15.88;12.75;;;;;;;;;;6263140;28;20045;-62
2023/08/23 11:28:18;;;;;;;17.07;13.03;;;;;;;;;;6264780;28;20049;-62
2023/08/23 11:31:21;;;;;;;16.23;11.93;;;;;;;;;;6263466;28;20049;-62
2023/08/23 11:34:21;;;;;;;17.27;12.50;;;;;;;;;;6263936;28;20426;-63
2023/08/23 11:37:23;;;;;;;16.67;12.75;;;;;;;;;;6265679;28;20061;-62
2023/08/23 11:40:23;;;;;;;19.50;13.60;;;;;;;;;;6265999;28;20057;-62
2023/08/23 11:43:28;;;;;;;14.93;11.65;;;;;;;;;;6263730;28;20044;-63
2023/08/23 11:46:29;;;;;;;13.98;11.00;;;;;;;;;;6267100;28;20099;-62
2023/08/23 11:49:30;;;;;;;14.43;11.05;;;;;;;;;;6265322;28;20443;-62
2023/08/23 11:52:32;;;;;;;12.27;10.43;;;;;;;;;;6264360;28;20041;-62
2023/08/23 11:55:33;;;;;;;15.00;10.18;;;;;;;;;;6265547;28;20063;-62
2023/08/23 11:58:34;;;;;;;17.00;11.50;;;;;;;;;;6266767;28;20496;-62
2023/08/23 12:01:36;;;;;;;13.17;11.37;;;;;;;;;;6261290;28;20091;-62
2023/08/23 12:04:42;;;;;;;15.50;11.40;;;;;;;;;;6266590;28;20308;-62
2023/08/23 12:07:43;;;;;;;17.15;12.57;;;;;;;;;;6263991;28;20082;-62
2023/08/23 12:10:44;;;;;;;16.77;12.05;;;;;;;;;;6263419;28;20053;-62
2023/08/23 12:13:46;;;;;;;14.43;11.10;;;;;;;;;;6264329;28;20044;-62
2023/08/23 12:16:46;;;;;;;15.87;11.50;;;;;;;;;;6267258;28;20235;-63
2023/08/23 12:19:48;;;;;;;15.27;11.67;;;;;;;;;;6265057;28;20072;-62
2023/08/23 12:22:50;;;;;;;15.68;12.30;;;;;;;;;;6264373;28;20301;-62
2023/08/23 12:25:51;;;;;;;15.18;10.98;;;;;;;;;;6264743;28;20488;-63
2023/08/23 12:28:52;;;;;;;14.47;10.53;;;;;;;;;;6266511;28;20072;-62
2023/08/23 12:31:52;;;;;;;11.18;9.95;;;;;;;;;;6264249;28;20056;-62
2023/08/23 12:34:53;;;;;;;13.50;10.50;;;;;;;;;;6264466;28;20462;-62
2023/08/23 12:37:54;;;;;;;14.37;11.27;;;;;;;;;;6264944;28;20049;-62
2023/08/23 12:40:54;;;;;;;14.10;10.40;;;;;;;;;;6265507;28;20675;-62
2023/08/23 12:43:55;;;;;;;12.77;10.27;;;;;;;;;;6262665;28;20083;-62
2023/08/23 12:46:55;;;;;;;13.33;10.40;;;;;;;;;;6266118;28;20053;-62
2023/08/23 12:49:56;;;;;;;12.98;10.60;;;;;;;;;;6264743;28;20400;-62
2023/08/23 12:52:57;;;;;;;14.70;10.93;;;;;;;;;;6264067;28;20076;-63
2023/08/23 12:55:58;;;;;;;12.77;10.38;;;;;;;;;;6264442;28;20784;-62
2023/08/23 12:58:58;;;;;;;13.60;10.47;;;;;;;;;;6266284;28;20053;-62
2023/08/23 13:01:59;;;;;;;12.82;9.68;;;;;;;;;;6262480;28;20053;-62
2023/08/23 13:05:01;;;;;;;14.53;9.33;;;;;;;;;;6267236;28;20053;-62
2023/08/23 13:08:03;;;;;;;11.90;9.07;;;;;;;;;;6269017;28;20461;-62
2023/08/23 13:11:04;;;;;;;10.70;8.90;;;;;;;;;;6270191;28;20056;-62
2023/08/23 13:14:04;;;;;;;14.57;10.50;;;;;;;;;;6267298;28;20044;-63
2023/08/23 13:17:05;;;;;;;10.37;8.80;;;;;;;;;;6268464;28;20068;-62
2023/08/23 13:20:07;;;;;;;13.30;8.88;;;;;;;;;;6268251;28;20041;-62
2023/08/23 13:23:07;;;;;;;10.77;8.52;;;;;;;;;;6265733;28;20139;-63
2023/08/23 13:26:08;;;;;;;9.98;8.80;;;;;;;;;;6268955;28;20139;-63
2023/08/23 13:29:08;;;;;;;10.40;8.53;;;;;;;;;;6270320;28;20454;-63
2023/08/23 13:32:09;;;;;;;9.73;7.97;;;;;;;;;;6268021;28;20069;-63
2023/08/23 13:35:10;;;;;;;10.00;8.40;;;;;;;;;;6267757;28;20037;-62
2023/08/23 13:38:12;;;;;;;11.38;8.40;;;;;;;;;;6268961;28;20045;-62
2023/08/23 13:41:13;;;;;;;13.90;8.40;;;;;;;;;;6269890;28;20352;-62
2023/08/23 13:44:14;;;;;;;9.83;7.80;;;;;;;;;;6268014;28;20507;-63
2023/08/23 13:47:14;;;;;;;9.97;7.87;;;;;;;;;;6268441;28;20324;-62
2023/08/23 13:50:15;;;;;;;10.55;8.38;;;;;;;;;;6267965;28;20045;-62
2023/08/23 13:53:15;;;;;;;10.23;8.13;;;;;;;;;;6269458;28;20045;-62
2023/08/23 13:56:16;;;;;;;12.43;7.88;;;;;;;;;;6267875;28;20084;-61
2023/08/23 13:59:17;;;;;;;10.43;8.20;;;;;;;;;;6266545;28;20060;-62
2023/08/23 14:02:17;;;;;;;;;;;;;;;;;;6267822;28;20045;-62
2023/08/23 14:05:18;;;;;;;8.87;7.40;;;;;;;;;;6266209;28;19921;-62
2023/08/23 14:08:18;;;;;;;9.10;7.20;;;;;;;;;;6267925;28;20107;-61
2023/08/23 14:11:19;;;;;;;9.43;7.13;;;;;;;;;;6268611;28;20557;-62
2023/08/23 14:14:20;;;;;;;8.77;7.45;;;;;;;;;;6267230;28;20128;-62
2023/08/23 14:17:20;;;;;;;10.10;7.13;;;;;;;;;;6266882;28;20049;-62
2023/08/23 14:20:21;;;;;;;9.25;7.38;;;;;;;;;;6267190;28;20136;-62
2023/08/23 14:23:22;;;;;;;10.73;6.83;;;;;;;;;;6268521;28;20178;-62
2023/08/23 14:26:22;;;;;;;10.48;7.20;;;;;;;;;;6267512;28;20488;-62
2023/08/23 14:29:23;;;;;;;8.30;7.00;;;;;;;;;;6267412;28;20049;-63
2023/08/23 14:32:24;;;;;;;8.93;7.40;;;;;;;;;;6266955;28;20806;-63
2023/08/23 14:35:24;;;;;;;9.88;7.35;;;;;;;;;;6268479;28;20289;-63
2023/08/23 14:38:25;;;;;;;8.90;7.45;;;;;;;;;;6267068;28;20475;-63
2023/08/23 14:41:25;;;;;;;10.57;7.70;;;;;;;;;;6266941;28;20096;-62
2023/08/23 14:44:29;;;;;;;10.15;7.45;;;;;;;;;;6266263;28;20064;-63
2023/08/23 14:47:29;;;;;;;8.35;7.00;;;;;;;;;;6266783;28;20087;-62
2023/08/23 14:50:32;;;;;;;11.30;7.25;;;;;;;;;;6259541;28;21014;-63
2023/08/23 14:53:32;;;;;;;13.05;7.78;;;;;;;;;;6263458;28;20482;-62
2023/08/23 14:56:33;;;;;;;10.03;7.67;;;;;;;;;;6266611;28;20051;-63
2023/08/23 14:59:33;;;;;;;10.57;7.57;;;;;;;;;;6267819;28;20056;-63
2023/08/23 15:02:34;;;;;;;11.88;7.28;;;;;;;;;;6262030;28;20045;-62
2023/08/23 15:05:38;;;;;;;8.13;7.13;;;;;;;;;;6266454;28;20751;-63
2023/08/23 15:08:40;;;;;;;10.82;7.50;;;;;;;;;;6258233;28;20160;-64
2023/08/23 15:11:40;;;;;;;9.23;7.65;;;;;;;;;;6255222;28;20049;-64
2023/08/23 15:14:41;;;;;;;9.77;7.93;;;;;;;;;;6266748;28;20096;-64
2023/08/23 15:17:42;;;;;;;10.73;7.30;;;;;;;;;;6260907;28;20456;-63
2023/08/23 15:20:42;;;;;;;9.15;7.20;;;;;;;;;;6266938;28;20045;-63
2023/08/23 15:23:43;;;;;;;9.70;7.37;;;;;;;;;;6266488;28;20051;-63
2023/08/23 15:26:44;;;;;;;9.75;7.35;;;;;;;;;;6266635;28;20103;-63
2023/08/23 15:29:44;;;;;;;11.83;8.27;;;;;;;;;;6267101;28;20049;-63
2023/08/23 15:32:45;;;;;;;11.10;7.85;;;;;;;;;;6266032;28;20045;-63
2023/08/23 15:35:45;;;;;;;9.67;7.10;;;;;;;;;;6266843;28;20049;-63
2023/08/23 15:38:46;;;;;;;9.57;7.25;;;;;;;;;;6266650;28;20130;-63
2023/08/23 15:41:47;;;;;;;8.88;7.10;;;;;;;;;;6266463;28;20048;-63
2023/08/23 15:44:47;;;;;;;9.13;7.22;;;;;;;;;;6255701;28;20477;-62
2023/08/23 15:47:48;;;;;;;10.63;7.33;;;;;;;;;;6258931;28;20110;-62
2023/08/23 15:50:49;;;;;;;10.05;7.22;;;;;;;;;;6253667;28;20549;-63
2023/08/23 15:53:49;;;;;;;11.50;7.43;;;;;;;;;;6265263;28;20575;-61
2023/08/23 15:56:50;;;;;;;10.52;7.78;;;;;;;;;;6266056;28;20044;-62
2023/08/23 15:59:50;;;;;;;10.67;7.87;;;;;;;;;;6265866;28;20045;-63
2023/08/23 16:02:51;;;;;;;9.87;7.70;;;;;;;;;;6265513;28;20049;-62
2023/08/23 16:05:54;;;;;;;9.03;7.37;;;;;;;;;;6265377;28;20298;-63
2023/08/23 16:08:54;;;;;;;14.82;7.25;;;;;;;;;;6265565;28;20059;-63
2023/08/23 16:11:55;;;;;;;10.53;7.30;;;;;;;;;;6265634;28;20041;-63
2023/08/23 16:14:56;;;;;;;10.32;7.57;;;;;;;;;;6265225;28;20053;-63
2023/08/23 16:17:56;;;;;;;10.23;7.60;;;;;;;;;;6265837;28;20134;-62
2023/08/23 16:20:57;;;;;;;10.15;7.43;;;;;;;;;;6265746;28;20053;-63
2023/08/23 16:23:57;;;;;;;12.67;7.70;;;;;;;;;;6264610;28;20041;-63
2023/08/23 16:26:58;;;;;;;9.65;7.30;;;;;;;;;;6265754;28;20136;-62
2023/08/23 16:30:01;;;;;;;9.50;7.43;;;;;;;;;;6265650;28;20466;-63
2023/08/23 16:33:02;;;;;;;9.48;7.55;;;;;;;;;;6264898;28;20132;-63
2023/08/23 16:36:03;;;;;;;11.30;7.80;;;;;;;;;;6265492;28;20063;-63
2023/08/23 16:39:04;;;;;;;9.27;7.90;;;;;;;;;;6267524;28;20060;-63
2023/08/23 16:42:05;;;;;;;11.63;8.23;;;;;;;;;;6270283;28;20041;-64
2023/08/23 16:45:07;;;;;;;13.48;7.88;;;;;;;;;;6270584;28;20549;-63
2023/08/23 16:48:07;;;;;;;;;;;;;;;;;;6269545;28;20405;-63
2023/08/23 16:51:08;;;;;;;12.30;7.23;;;;;;;;;;6263741;28;20015;-63
2023/08/23 16:54:10;;;;;;;8.33;7.37;;;;;;;;;;6256919;28;20703;-63
2023/08/23 16:57:11;;;;;;;12.45;7.55;;;;;;;;;;6270618;28;20547;-62
2023/08/23 17:00:13;;;;;;;9.10;6.67;;;;;;;;;;6269784;28;20056;-63
2023/08/23 17:03:14;;;;;;;10.68;7.25;;;;;;;;;;6269858;28;20101;-64
2023/08/23 17:06:14;;;;;;;12.80;7.63;;;;;;;;;;6270009;28;20435;-62
2023/08/23 17:09:16;;;;;;;10.55;8.18;;;;;;;;;;6269539;28;20068;-62
2023/08/23 17:12:17;;;;;;;10.50;8.68;;;;;;;;;;6269661;28;20045;-64
2023/08/23 17:15:18;;;;;;;10.68;8.70;;;;;;;;;;6269246;28;20052;-63
2023/08/23 17:18:18;;;;;;;11.97;8.67;;;;;;;;;;6267220;28;20401;-63
2023/08/23 17:21:19;;;;;;;11.68;8.40;;;;;;;;;;6269295;28;20045;-64
2023/08/23 17:24:19;;;;;;;10.73;8.00;;;;;;;;;;6268862;28;20045;-63
2023/08/23 17:27:20;;;;;;;11.77;7.95;;;;;;;;;;6269103;28;20135;-61
2023/08/23 17:30:21;;;;;;;10.20;8.20;;;;;;;;;;6269524;28;20159;-61
2023/08/23 17:33:21;;;;;;;11.23;8.75;;;;;;;;;;6268531;28;20487;-61
2023/08/23 17:36:22;;;;;;;11.37;8.73;;;;;;;;;;6269604;28;20037;-61
2023/08/23 17:39:23;;;;;;;12.65;9.20;;;;;;;;;;6269440;28;20045;-63
2023/08/23 17:42:24;;;;;;;14.50;8.68;;;;;;;;;;6269187;28;20072;-60
2023/08/23 17:45:25;;;;;;;12.40;8.85;;;;;;;;;;6268931;28;20052;-61